Time;durP1;ratioP1;P1;durP2;ratioP2;P2;SDS_P1;SDS_P2;PMS_P1;PMS_P2;Temp;Humidity;BMP_temperature;BMP_pressure;BME280_temperature;BME280_humidity;BME280_pressure;Samples;Min_cycle;Max_cycle;Signal;HPM_P1;HPM_P2
2021/05/18 00:00:53;;;;;;;0.50;0.40;;;10.00;99.90;;;;;;5018730;28;20316;-83
2021/05/18 00:03:20;;;;;;;0.50;0.40;;;10.00;99.90;;;;;;5018613;28;20229;-82
2021/05/18 00:05:49;;;;;;;0.50;0.40;;;10.00;99.90;;;;;;5026072;28;20178;-82
2021/05/18 00:08:17;;;;;;;0.50;0.40;;;10.10;99.90;;;;;;5022969;28;20225;-82
2021/05/18 00:13:31;;;;;;;0.50;0.40;;;10.10;99.90;;;;;;4999786;28;20202;-82
2021/05/18 00:15:59;;;;;;;0.50;0.38;;;10.10;99.90;;;;;;4999838;28;20204;-82
2021/05/18 00:18:27;;;;;;;0.50;0.40;;;10.10;99.90;;;;;;4999710;28;20194;-83
2021/05/18 00:20:54;;;;;;;0.50;0.40;;;10.10;99.90;;;;;;4999713;28;20425;-82
2021/05/18 00:23:21;;;;;;;0.70;0.40;;;10.20;99.90;;;;;;4998841;28;20199;-82
2021/05/18 00:25:48;;;;;;;0.50;0.40;;;10.20;99.90;;;;;;4999873;28;20198;-82
2021/05/18 00:28:14;;;;;;;0.50;0.40;;;10.30;99.90;;;;;;5000108;28;20223;-82
2021/05/18 00:30:41;;;;;;;0.50;0.40;;;10.20;99.90;;;;;;5003279;28;20194;-81
2021/05/18 00:33:12;;;;;;;0.50;0.40;;;10.20;99.90;;;;;;5002899;28;20195;-81
2021/05/18 00:35:39;;;;;;;0.50;0.40;;;10.20;99.90;;;;;;5004084;28;20202;-82
2021/05/18 00:38:05;;;;;;;0.50;0.40;;;10.20;99.90;;;;;;5002633;28;20191;-82
2021/05/18 00:40:32;;;;;;;0.50;0.40;;;10.20;99.90;;;;;;5003154;28;20306;-82
2021/05/18 00:42:59;;;;;;;0.50;0.40;;;10.20;99.90;;;;;;5020431;28;20202;-82
2021/05/18 00:45:30;;;;;;;0.50;0.40;;;10.20;99.90;;;;;;5022498;28;20204;-82
2021/05/18 00:47:57;;;;;;;0.50;0.40;;;10.20;99.90;;;;;;5022325;28;20225;-83
2021/05/18 00:50:24;;;;;;;0.50;0.40;;;10.20;99.90;;;;;;5022239;28;20620;-82
2021/05/18 00:52:51;;;;;;;0.50;0.40;;;10.20;99.90;;;;;;5022217;28;20734;-82
2021/05/18 00:55:22;;;;;;;0.50;0.40;;;10.20;99.90;;;;;;5025241;28;20694;-82
2021/05/18 01:00:33;;;;;;;0.50;0.40;;;10.20;99.90;;;;;;5023265;28;20186;-82
2021/05/18 01:02:59;;;;;;;0.50;0.40;;;10.30;99.90;;;;;;5023323;28;20771;-81
2021/05/18 01:08:08;;;;;;;0.93;0.93;;;10.30;99.90;;;;;;5022448;28;20222;-82
2021/05/18 01:10:35;;;;;;;0.50;0.40;;;10.20;99.90;;;;;;5022543;28;20254;-81
2021/05/18 01:13:01;;;;;;;0.60;0.60;;;10.20;99.90;;;;;;5032584;22;20873;-74
2021/05/18 01:15:28;;;;;;;0.75;0.75;;;10.10;99.90;;;;;;4994142;28;20195;-81
2021/05/18 01:17:54;;;;;;;0.73;0.73;;;10.20;99.90;;;;;;4995394;28;20246;-79
2021/05/18 01:20:21;;;;;;;0.50;0.40;;;10.20;99.90;;;;;;4994896;28;20565;-79
2021/05/18 01:22:49;;;;;;;1.73;1.02;;;10.10;99.90;;;;;;4995270;28;20688;-78
2021/05/18 01:25:16;;;;;;;1.35;1.25;;;10.10;99.90;;;;;;4994805;28;20630;-79
2021/05/18 01:27:43;;;;;;;0.50;0.40;;;10.10;99.90;;;;;;4994454;28;20219;-79
2021/05/18 01:30:10;;;;;;;0.50;0.40;;;10.10;99.90;;;;;;4994958;28;20197;-78
2021/05/18 01:32:39;;;;;;;0.50;0.40;;;10.10;99.90;;;;;;4994892;28;20226;-80
2021/05/18 01:35:07;;;;;;;0.50;0.40;;;10.10;99.90;;;;;;4994257;28;20661;-78
2021/05/18 01:37:33;;;;;;;0.50;0.40;;;10.10;99.90;;;;;;4995124;28;20260;-79
2021/05/18 01:40:10;;;;;;;0.50;0.40;;;10.10;99.90;;;;;;4994456;28;20210;-78
2021/05/18 01:42:49;;;;;;;0.98;0.80;;;10.10;99.90;;;;;;4994280;28;20674;-77
2021/05/18 01:45:19;;;;;;;0.50;0.40;;;10.00;99.90;;;;;;4996091;28;20175;-81
2021/05/18 01:47:50;;;;;;;0.70;0.70;;;10.00;99.90;;;;;;4994716;28;20582;-78
2021/05/18 01:50:17;;;;;;;1.98;1.52;;;10.00;99.90;;;;;;4994423;28;20198;-80
2021/05/18 01:52:44;;;;;;;0.50;0.40;;;10.10;99.90;;;;;;4994253;28;20231;-78
2021/05/18 01:55:16;;;;;;;2.97;2.20;;;10.10;99.90;;;;;;4994122;28;20199;-80
2021/05/18 01:57:44;;;;;;;0.50;0.40;;;10.10;99.90;;;;;;4994112;28;20193;-78
2021/05/18 02:00:13;;;;;;;0.80;0.68;;;10.10;99.90;;;;;;4994441;28;20295;-79
2021/05/18 02:02:39;;;;;;;3.55;3.08;;;10.10;99.90;;;;;;4994479;28;20220;-78
2021/05/18 02:05:09;;;;;;;0.50;0.40;;;10.10;99.90;;;;;;4993385;28;20198;-78
2021/05/18 02:07:37;;;;;;;0.50;0.40;;;10.00;99.90;;;;;;4994014;28;20273;-79
2021/05/18 02:10:06;;;;;;;1.17;1.08;;;10.00;99.90;;;;;;4994142;28;20194;-77
2021/05/18 02:12:33;;;;;;;1.45;1.20;;;9.90;99.90;;;;;;4993859;28;20309;-77
2021/05/18 02:15:04;;;;;;;2.35;1.50;;;9.90;99.90;;;;;;5004304;28;20204;-74
2021/05/18 02:17:34;;;;;;;0.50;0.40;;;9.90;99.90;;;;;;5013753;28;20198;-78
2021/05/18 02:20:12;;;;;;;2.45;0.77;;;9.80;99.90;;;;;;5013826;28;20249;-79
2021/05/18 02:25:26;;;;;;;1.15;1.15;;;9.70;99.90;;;;;;5013356;28;20185;-78
2021/05/18 02:27:55;;;;;;;2.15;1.80;;;9.70;99.90;;;;;;5012992;28;20222;-78
2021/05/18 02:30:23;;;;;;;0.50;0.40;;;9.70;99.90;;;;;;5013430;28;20208;-79
2021/05/18 02:32:50;;;;;;;0.50;0.40;;;9.70;99.90;;;;;;5013159;28;20719;-78
2021/05/18 02:35:17;;;;;;;0.50;0.40;;;9.70;99.90;;;;;;5013292;28;20202;-79
2021/05/18 02:37:44;;;;;;;0.80;0.80;;;9.60;99.90;;;;;;5013168;28;20668;-81
2021/05/18 02:40:16;;;;;;;0.50;0.40;;;9.70;99.90;;;;;;5013419;28;20202;-78
2021/05/18 02:42:43;;;;;;;0.50;0.40;;;9.70;99.90;;;;;;5007209;28;20227;-79
2021/05/18 02:45:16;;;;;;;0.50;0.40;;;9.70;99.90;;;;;;5004481;28;20195;-78
2021/05/18 02:50:27;;;;;;;0.50;0.40;;;9.70;99.90;;;;;;5012199;28;20190;-78
2021/05/18 02:52:53;;;;;;;0.93;0.93;;;9.70;99.90;;;;;;5013247;28;20218;-78
2021/05/18 02:55:23;;;;;;;0.50;0.40;;;9.80;99.90;;;;;;5012872;28;20293;-77
2021/05/18 02:57:50;;;;;;;0.50;0.40;;;9.80;99.90;;;;;;5012884;28;20206;-78
2021/05/18 03:00:20;;;;;;;0.50;0.40;;;9.80;99.90;;;;;;5013120;28;20294;-78
2021/05/18 03:02:48;;;;;;;0.50;0.40;;;9.80;99.90;;;;;;5013330;28;20225;-79
2021/05/18 03:05:14;;;;;;;2.38;0.85;;;9.90;99.90;;;;;;5012410;28;20314;-78
2021/05/18 03:07:41;;;;;;;0.50;0.50;;;9.90;99.90;;;;;;5012762;28;20218;-79
2021/05/18 03:10:08;;;;;;;3.03;2.85;;;9.90;99.90;;;;;;5012491;28;20210;-77
2021/05/18 03:12:35;;;;;;;2.00;1.13;;;9.90;99.90;;;;;;5007527;28;20238;-78
2021/05/18 03:15:02;;;;;;;1.08;0.98;;;9.80;99.90;;;;;;5003733;28;20569;-78
2021/05/18 03:17:30;;;;;;;2.15;2.05;;;9.80;99.90;;;;;;5012755;28;20196;-79
2021/05/18 03:19:57;;;;;;;0.50;0.40;;;9.70;99.90;;;;;;5012620;28;20265;-79
2021/05/18 03:22:23;;;;;;;0.50;0.40;;;9.60;99.90;;;;;;5013716;28;20224;-77
2021/05/18 03:24:50;;;;;;;0.50;0.40;;;9.70;99.90;;;;;;5013503;28;20249;-79
2021/05/18 03:27:16;;;;;;;1.30;1.20;;;9.70;99.90;;;;;;5012460;28;20250;-78
2021/05/18 03:29:44;;;;;;;0.50;0.40;;;9.70;99.90;;;;;;5012433;28;20273;-82
2021/05/18 03:34:55;;;;;;;0.65;0.65;;;9.70;99.90;;;;;;5012821;28;20196;-78
2021/05/18 03:37:24;;;;;;;2.45;2.35;;;9.70;99.90;;;;;;5013349;28;20222;-79
2021/05/18 03:39:54;;;;;;;1.30;1.20;;;9.70;99.90;;;;;;5012561;28;20199;-78
2021/05/18 03:42:23;;;;;;;0.50;0.40;;;9.80;99.90;;;;;;5010310;28;20272;-79
2021/05/18 03:45:05;;;;;;;3.00;2.58;;;9.70;99.90;;;;;;5001376;28;20282;-78
2021/05/18 03:53:16;;;;;;;1.00;0.77;;;9.80;99.90;;;;;;5012122;28;20221;-79
2021/05/18 03:58:37;;;;;;;2.70;2.45;;;9.70;99.90;;;;;;5011831;28;20219;-77
2021/05/18 04:03:51;;;;;;;0.50;0.40;;;9.70;99.90;;;;;;5011658;28;20256;-79
2021/05/18 04:11:53;;;;;;;3.35;2.83;;;9.80;99.90;;;;;;5012127;28;20232;-79
2021/05/18 04:17:19;;;;;;;0.50;0.40;;;9.80;99.90;;;;;;4932509;29;20199;-78
2021/05/18 04:19:50;;;;;;;0.50;0.40;;;9.80;99.90;;;;;;4932343;29;20201;-79
2021/05/18 04:22:29;;;;;;;1.15;1.10;;;9.80;99.90;;;;;;4951044;28;20234;-78
2021/05/18 04:38:51;;;;;;;0.73;0.73;;;9.90;99.90;;;;;;4973439;28;20191;-77
2021/05/18 04:49:49;;;;;;;1.70;1.65;;;10.00;99.90;;;;;;5011665;28;20211;-79
2021/05/18 04:52:17;;;;;;;0.50;0.38;;;9.90;99.90;;;;;;5011510;28;20214;-79
2021/05/18 05:00:15;;;;;;;3.45;3.25;;;10.00;99.90;;;;;;5011596;28;20612;-77
2021/05/18 05:02:55;;;;;;;4.05;3.85;;;10.00;99.90;;;;;;5011527;28;20687;-79
2021/05/18 05:08:08;;;;;;;0.50;0.40;;;10.00;99.90;;;;;;5011585;28;20217;-76
2021/05/18 05:16:05;;;;;;;1.20;1.20;;;10.20;99.90;;;;;;5006413;28;20207;-80
2021/05/18 05:18:31;;;;;;;0.40;0.30;;;10.20;99.90;;;;;;5015313;28;20247;-79
2021/05/18 05:20:57;;;;;;;0.40;0.40;;;10.20;99.90;;;;;;5015499;28;20249;-78
2021/05/18 05:23:23;;;;;;;0.93;0.93;;;10.30;99.90;;;;;;5014979;28;20265;-79
2021/05/18 05:25:51;;;;;;;0.88;0.88;;;10.30;99.90;;;;;;5015285;28;20196;-81
2021/05/18 05:28:17;;;;;;;0.60;0.60;;;10.30;99.90;;;;;;5015677;28;20296;-80
2021/05/18 05:30:43;;;;;;;0.50;0.40;;;10.30;99.90;;;;;;5015830;28;20200;-79
2021/05/18 05:33:10;;;;;;;0.50;0.40;;;10.30;99.90;;;;;;5014469;28;20227;-81
2021/05/18 05:35:36;;;;;;;0.40;0.40;;;10.30;99.90;;;;;;5014952;28;20203;-78
2021/05/18 05:38:02;;;;;;;0.50;0.30;;;10.30;99.90;;;;;;5015324;28;20205;-80
2021/05/18 05:40:29;;;;;;;0.50;0.40;;;10.30;99.90;;;;;;5014996;28;20195;-78
2021/05/18 05:42:56;;;;;;;1.35;1.25;;;10.30;99.90;;;;;;5008540;28;20230;-83
2021/05/18 05:45:22;;;;;;;1.75;1.65;;;10.30;99.90;;;;;;5006174;28;20195;-78
2021/05/18 05:47:48;;;;;;;1.65;1.52;;;10.30;99.90;;;;;;5014154;28;20585;-79
2021/05/18 05:50:15;;;;;;;0.50;0.45;;;10.30;99.90;;;;;;5014506;28;20199;-78
2021/05/18 05:52:41;;;;;;;0.50;0.40;;;10.30;99.90;;;;;;5015311;28;20215;-79
2021/05/18 05:55:09;;;;;;;0.52;0.52;;;10.40;99.90;;;;;;5014534;28;20207;-79
2021/05/18 05:57:36;;;;;;;4.05;3.75;;;10.40;99.90;;;;;;5014365;28;20194;-78
2021/05/18 06:00:07;;;;;;;0.50;0.40;;;10.40;99.90;;;;;;5014404;28;20224;-79
2021/05/18 06:02:33;;;;;;;4.43;3.00;;;10.40;99.90;;;;;;5014429;28;20219;-79
2021/05/18 06:04:59;;;;;;;0.85;0.80;;;10.40;99.90;;;;;;5015690;28;20206;-79
2021/05/18 06:07:25;;;;;;;0.98;0.88;;;10.40;99.90;;;;;;5015188;28;20263;-80
2021/05/18 06:09:56;;;;;;;0.50;0.40;;;10.50;99.90;;;;;;5014064;28;20196;-80
2021/05/18 06:12:33;;;;;;;1.17;0.82;;;10.50;99.90;;;;;;5010681;28;20590;-78
2021/05/18 06:15:24;;;;;;;1.13;0.98;;;10.60;99.90;;;;;;5003753;28;20189;-80
2021/05/18 06:18:10;;;;;;;1.35;1.20;;;10.60;99.90;;;;;;4985565;28;20196;-78
2021/05/18 06:34:43;;;;;;;0.95;0.95;;;10.60;99.90;;;;;;5013601;28;20217;-79
2021/05/18 06:37:26;;;;;;;5.28;4.05;;;10.60;99.90;;;;;;5014845;28;20175;-80
2021/05/18 06:42:40;;;;;;;2.35;2.25;;;10.60;99.90;;;;;;5008356;28;20226;-77
2021/05/18 06:47:53;;;;;;;1.42;1.42;;;10.60;99.90;;;;;;4993568;28;20210;-78
2021/05/18 06:50:29;;;;;;;0.50;0.50;;;10.60;99.90;;;;;;4993161;28;20230;-78
2021/05/18 06:52:56;;;;;;;5.03;3.90;;;10.60;99.90;;;;;;4993474;28;20222;-78
2021/05/18 06:55:26;;;;;;;0.90;0.90;;;10.70;99.90;;;;;;4993304;28;20289;-81
2021/05/18 06:57:59;;;;;;;2.63;2.40;;;10.70;99.90;;;;;;4994089;28;20254;-78
2021/05/18 07:00:25;;;;;;;0.60;0.60;;;10.70;99.90;;;;;;4998790;28;20239;-78
2021/05/18 07:02:53;;;;;;;3.37;1.53;;;10.80;99.90;;;;;;4993526;28;20219;-79
2021/05/18 07:05:27;;;;;;;1.80;1.67;;;10.90;99.90;;;;;;4992251;28;20446;-78
2021/05/18 07:07:59;;;;;;;1.88;1.23;;;10.90;99.90;;;;;;4993187;28;20221;-78
2021/05/18 07:10:25;;;;;;;0.75;0.75;;;11.00;99.90;;;;;;4993570;28;20617;-79
2021/05/18 07:12:52;;;;;;;2.58;1.80;;;11.10;99.90;;;;;;4991881;28;20232;-77
2021/05/18 07:15:18;;;;;;;3.75;3.35;;;11.20;99.90;;;;;;4997700;28;20195;-79
2021/05/18 07:17:44;;;;;;;1.05;0.95;;;11.30;99.90;;;;;;5013049;28;20663;-78
2021/05/18 07:20:11;;;;;;;1.60;1.50;;;11.30;99.90;;;;;;5012847;28;20253;-75
2021/05/18 07:22:39;;;;;;;0.70;0.60;;;11.40;99.90;;;;;;5078073;22;20789;-79
2021/05/18 07:25:06;;;;;;;0.50;0.40;;;11.50;99.90;;;;;;5018363;28;20206;-78
2021/05/18 07:27:32;;;;;;;0.52;0.52;;;11.60;99.90;;;;;;5036341;28;20285;-80
2021/05/18 07:29:59;;;;;;;6.45;2.65;;;11.70;99.90;;;;;;5035497;28;20204;-81
2021/05/18 07:32:26;;;;;;;0.65;0.65;;;11.70;99.90;;;;;;5048101;28;20806;-80
2021/05/18 07:34:54;;;;;;;0.50;0.40;;;11.80;99.90;;;;;;5054406;28;20209;-81
2021/05/18 07:37:21;;;;;;;1.73;1.67;;;11.90;99.90;;;;;;5048928;28;20202;-81
2021/05/18 07:39:48;;;;;;;4.93;2.85;;;11.90;99.90;;;;;;5036106;28;20194;-79
2021/05/18 07:42:15;;;;;;;1.45;1.45;;;12.00;99.90;;;;;;5035351;28;20223;-80
2021/05/18 07:44:41;;;;;;;0.50;0.40;;;11.90;99.90;;;;;;5035519;28;20203;-79
2021/05/18 07:47:07;;;;;;;0.50;0.40;;;11.90;99.90;;;;;;5034137;28;20251;-79
2021/05/18 07:49:36;;;;;;;5.30;1.35;;;12.00;99.90;;;;;;5035455;28;20195;-80
2021/05/18 08:00:54;;;;;;;0.82;0.82;;;11.90;99.90;;;;;;5054042;28;20178;-80
2021/05/18 08:06:05;;;;;;;0.50;0.40;;;12.00;99.90;;;;;;5054277;28;20213;-78
2021/05/18 08:08:31;;;;;;;0.82;0.82;;;12.00;99.90;;;;;;5038830;28;20279;-80
2021/05/18 08:11:01;;;;;;;0.50;0.40;;;12.00;99.90;;;;;;5035482;28;20195;-80
2021/05/18 08:13:27;;;;;;;0.50;0.40;;;12.10;99.90;;;;;;5053751;28;20191;-80
2021/05/18 08:19:13;;;;;;;5.25;4.80;;;12.30;99.90;;;;;;5053421;28;20185;-79
2021/05/18 08:47:32;;;;;;;0.93;0.80;;;14.30;99.90;;;;;;5053501;28;20420;-79
2021/05/18 10:34:59;;;;;;;0.50;0.40;;;11.70;99.90;;;;;;5035081;28;20553;-80
2021/05/18 10:37:36;;;;;;;0.50;0.40;;;11.40;99.90;;;;;;5049491;28;20773;-79
2021/05/18 10:40:26;;;;;;;0.50;0.40;;;11.10;99.90;;;;;;5055833;28;20213;-80
2021/05/18 10:43:23;;;;;;;0.50;0.40;;;10.90;99.90;;;;;;5056569;28;20320;-80
2021/05/18 10:46:10;;;;;;;0.50;0.40;;;10.70;99.90;;;;;;5010495;28;20197;-80
2021/05/18 10:49:00;;;;;;;0.50;0.40;;;10.70;99.90;;;;;;5054400;28;20216;-79
2021/05/18 10:51:33;;;;;;;0.50;0.40;;;10.70;99.90;;;;;;5055471;28;20213;-80
2021/05/18 10:54:28;;;;;;;0.50;0.40;;;10.70;99.90;;;;;;5054592;28;20191;-80
2021/05/18 10:57:27;;;;;;;0.50;0.40;;;10.80;99.90;;;;;;5033213;28;20208;-80
2021/05/18 10:59:56;;;;;;;0.50;0.40;;;10.90;99.90;;;;;;5034915;28;20726;-80
2021/05/18 11:02:25;;;;;;;0.50;0.40;;;11.00;99.90;;;;;;5034666;28;20589;-80
2021/05/18 11:04:53;;;;;;;0.50;0.40;;;11.20;99.90;;;;;;5034829;28;20697;-80
2021/05/18 11:07:21;;;;;;;0.50;0.40;;;11.30;99.90;;;;;;5034701;28;20754;-79
2021/05/18 11:09:49;;;;;;;0.50;0.40;;;11.60;99.90;;;;;;5033855;28;20203;-80
2021/05/18 11:12:16;;;;;;;0.50;0.40;;;12.00;99.90;;;;;;5033942;28;20222;-79
2021/05/18 11:14:46;;;;;;;0.50;0.40;;;12.60;99.90;;;;;;5034326;28;20203;-79
2021/05/18 11:17:15;;;;;;;0.50;0.40;;;13.20;99.90;;;;;;5035663;28;20199;-79
2021/05/18 11:19:57;;;;;;;0.50;0.40;;;13.60;99.90;;;;;;5035333;28;20442;-79
2021/05/18 11:25:05;;;;;;;0.50;0.40;;;14.50;99.90;;;;;;5054541;28;20425;-76
2021/05/18 11:27:31;;;;;;;0.50;0.30;;;14.90;99.90;;;;;;5055045;28;20452;-79
2021/05/18 11:29:58;;;;;;;2.20;0.80;;;15.50;99.90;;;;;;5046656;28;20451;-79
2021/05/18 11:32:25;;;;;;;0.50;0.30;;;16.40;99.90;;;;;;5054761;28;20461;-79
2021/05/18 11:34:53;;;;;;;0.50;0.40;;;16.90;99.90;;;;;;5054276;28;20548;-80
2021/05/18 11:37:19;;;;;;;0.50;0.40;;;17.10;99.90;;;;;;5054395;28;20436;-80
2021/05/18 11:39:45;;;;;;;0.50;0.40;;;17.00;99.90;;;;;;5054815;28;20471;-80
2021/05/18 11:42:25;;;;;;;0.50;0.40;;;17.40;99.90;;;;;;5054133;28;20484;-79
2021/05/18 11:45:06;;;;;;;0.50;0.40;;;17.60;99.90;;;;;;5053941;28;20446;-81
2021/05/18 11:47:32;;;;;;;0.50;0.40;;;17.80;99.90;;;;;;4996322;28;20453;-79
2021/05/18 11:49:58;;;;;;;0.50;0.40;;;18.00;99.90;;;;;;4990754;28;20448;-79
2021/05/18 11:52:25;;;;;;;0.50;0.30;;;17.90;99.90;;;;;;5003856;28;21032;-81
2021/05/18 11:54:51;;;;;;;0.50;0.30;;;17.80;99.90;;;;;;5045771;28;20910;-81
2021/05/18 11:57:18;;;;;;;0.50;0.30;;;18.10;99.90;;;;;;5035109;28;20452;-82
2021/05/18 11:59:44;;;;;;;0.50;0.40;;;19.00;99.90;;;;;;5035128;28;20803;-81
2021/05/18 12:02:11;;;;;;;0.50;0.40;;;19.60;99.90;;;;;;5035117;28;20465;-82
2021/05/18 12:04:40;;;;;;;0.50;0.40;;;19.90;99.90;;;;;;5035793;28;20472;-81
2021/05/18 12:07:08;;;;;;;0.50;0.40;;;20.00;99.90;;;;;;5035748;28;20442;-81
2021/05/18 12:09:36;;;;;;;0.50;0.40;;;20.30;99.90;;;;;;5035877;28;20481;-81
2021/05/18 12:12:04;;;;;;;0.50;0.40;;;20.50;99.90;;;;;;5044927;28;20454;-81
2021/05/18 12:14:32;;;;;;;0.50;0.40;;;20.60;99.90;;;;;;5054430;28;20459;-81
2021/05/18 12:16:59;;;;;;;0.50;0.40;;;20.10;99.90;;;;;;5054492;28;20437;-81
2021/05/18 12:19:26;;;;;;;0.50;0.40;;;20.40;99.90;;;;;;5054829;28;20477;-80
2021/05/18 12:21:56;;;;;;;0.50;0.50;;;20.70;99.90;;;;;;5054382;28;20534;-80
2021/05/18 12:24:24;;;;;;;0.50;0.30;;;20.40;99.90;;;;;;5050437;28;20437;-80
2021/05/18 12:26:53;;;;;;;0.50;0.30;;;19.70;99.90;;;;;;5038133;28;20943;-80
2021/05/18 12:29:34;;;;;;;0.50;0.40;;;19.40;99.90;;;;;;5038795;28;20946;-80
2021/05/18 12:32:20;;;;;;;0.50;0.30;;;18.90;99.90;;;;;;5041605;28;20490;-79
2021/05/18 12:34:48;;;;;;;0.50;0.40;;;18.50;99.90;;;;;;5049625;28;20486;-80
2021/05/18 12:37:15;;;;;;;0.50;0.30;;;18.10;99.90;;;;;;5048655;28;20440;-80
2021/05/18 12:39:43;;;;;;;0.60;0.50;;;17.70;99.90;;;;;;5048818;28;20509;-80
2021/05/18 12:42:13;;;;;;;1.33;1.13;;;16.40;99.90;;;;;;5049128;28;20466;-80
2021/05/18 12:44:54;;;;;;;0.50;0.40;;;15.50;99.90;;;;;;5049828;28;20449;-81
2021/05/18 12:47:28;;;;;;;0.50;0.40;;;14.40;99.90;;;;;;5052824;28;20445;-81
2021/05/18 12:49:56;;;;;;;0.50;0.40;;;13.60;99.90;;;;;;5050176;28;20471;-80
2021/05/18 12:52:23;;;;;;;0.50;0.40;;;12.90;99.90;;;;;;5058739;28;20215;-81
2021/05/18 12:54:52;;;;;;;0.50;0.40;;;12.50;99.90;;;;;;5061697;28;20191;-81
2021/05/18 12:57:21;;;;;;;0.50;0.40;;;12.20;99.90;;;;;;5046296;28;20524;-81
2021/05/18 13:00:14;;;;;;;0.50;0.40;;;11.90;99.90;;;;;;5040199;28;20199;-81
2021/05/18 13:02:42;;;;;;;0.50;0.40;;;11.50;99.90;;;;;;5037304;28;20219;-81
2021/05/18 13:05:27;;;;;;;0.50;0.40;;;11.30;99.90;;;;;;5037182;28;20199;-81
2021/05/18 13:08:09;;;;;;;0.50;0.40;;;11.10;99.90;;;;;;5035821;28;20623;-81
2021/05/18 13:10:41;;;;;;;0.50;0.40;;;11.10;99.90;;;;;;5036725;28;20198;-81
2021/05/18 13:13:09;;;;;;;2.45;1.60;;;11.00;99.90;;;;;;5037086;28;20218;-78
2021/05/18 13:15:36;;;;;;;0.50;0.40;;;11.00;99.90;;;;;;5036653;28;20208;-81
2021/05/18 13:18:04;;;;;;;0.50;0.40;;;10.90;99.90;;;;;;5037075;28;20219;-81
2021/05/18 13:20:47;;;;;;;0.50;0.40;;;10.90;99.90;;;;;;5036830;28;20276;-81
2021/05/18 13:23:27;;;;;;;0.50;0.40;;;10.90;99.90;;;;;;5067529;22;20226;-81
2021/05/18 13:28:38;;;;;;;0.50;0.40;;;10.80;99.90;;;;;;5055355;28;20169;-79
2021/05/18 13:31:05;;;;;;;0.50;0.40;;;11.00;99.90;;;;;;5054870;28;20193;-80
2021/05/18 13:33:32;;;;;;;0.50;0.40;;;11.10;99.90;;;;;;5054100;28;20225;-80
2021/05/18 13:36:00;;;;;;;0.50;0.40;;;11.20;99.90;;;;;;5053698;28;20548;-81
2021/05/18 13:38:26;;;;;;;0.50;0.40;;;11.40;99.90;;;;;;5054645;28;20222;-79
2021/05/18 13:40:52;;;;;;;0.50;0.50;;;11.70;99.90;;;;;;5054982;28;20198;-82
2021/05/18 13:43:20;;;;;;;0.50;0.40;;;12.00;99.90;;;;;;5054530;28;20237;-80
2021/05/18 13:45:46;;;;;;;0.50;0.40;;;12.20;99.90;;;;;;5054224;28;20571;-79
2021/05/18 13:48:12;;;;;;;0.50;0.40;;;12.50;99.90;;;;;;5055442;28;20190;-79
2021/05/18 13:50:38;;;;;;;0.50;0.40;;;12.80;99.90;;;;;;5054278;28;20191;-79
2021/05/18 13:53:06;;;;;;;0.50;0.47;;;13.00;99.90;;;;;;5062341;28;20510;-80
2021/05/18 13:55:33;;;;;;;1.88;1.77;;;13.20;99.90;;;;;;5069359;28;20436;-79
2021/05/18 13:58:00;;;;;;;0.50;0.40;;;13.40;99.90;;;;;;5074036;28;20229;-80
2021/05/18 14:00:27;;;;;;;3.40;1.37;;;14.20;99.90;;;;;;5074285;28;20875;-80
2021/05/18 14:02:54;;;;;;;0.50;0.30;;;15.50;99.90;;;;;;5073947;28;21014;-79
2021/05/18 14:05:23;;;;;;;0.50;0.30;;;16.80;99.90;;;;;;5075250;28;20458;-78
2021/05/18 14:08:25;;;;;;;0.50;0.30;;;18.40;99.90;;;;;;5075298;28;20523;-79
2021/05/18 14:10:58;;;;;;;0.50;0.40;;;19.30;99.90;;;;;;5074462;28;20450;-80
2021/05/18 14:13:26;;;;;;;0.50;0.40;;;19.60;99.90;;;;;;5073591;28;20588;-79
2021/05/18 14:15:52;;;;;;;0.50;0.40;;;20.00;99.90;;;;;;5073798;28;20440;-79
2021/05/18 14:18:19;;;;;;;0.50;0.40;;;21.10;99.90;;;;;;5074491;28;20489;-79
2021/05/18 14:20:46;;;;;;;0.50;0.30;;;20.90;99.90;;;;;;5073437;28;20467;-80
2021/05/18 14:23:12;;;;;;;0.60;0.57;;;20.70;99.90;;;;;;5068465;28;20551;-80
2021/05/18 14:25:40;;;;;;;0.50;0.30;;;19.70;99.90;;;;;;5069896;28;20519;-78
2021/05/18 14:28:07;;;;;;;0.50;0.37;;;18.80;99.90;;;;;;5073347;28;20440;-80
2021/05/18 14:30:33;;;;;;;0.50;0.40;;;18.50;99.90;;;;;;5073558;28;20440;-78
2021/05/18 14:33:00;;;;;;;0.50;0.30;;;18.20;99.90;;;;;;5073808;28;20466;-81
2021/05/18 14:35:28;;;;;;;0.50;0.40;;;17.90;99.90;;;;;;5072892;28;20887;-79
2021/05/18 14:37:58;;;;;;;0.60;0.60;;;17.60;99.90;;;;;;5072929;28;20471;-79
2021/05/18 14:40:41;;;;;;;0.50;0.40;;;17.20;99.90;;;;;;5073343;28;20496;-79
2021/05/18 14:43:29;;;;;;;0.50;0.30;;;16.80;99.90;;;;;;5073133;28;20460;-78
2021/05/18 14:46:02;;;;;;;1.30;1.23;;;16.40;99.90;;;;;;5072741;28;20432;-79
2021/05/18 14:54:09;;;;;;;0.50;0.40;;;14.00;99.90;;;;;;5022194;28;20785;-79
2021/05/18 14:56:35;;;;;;;0.50;0.40;;;13.30;99.90;;;;;;5073593;28;20439;-80
2021/05/18 14:59:03;;;;;;;0.50;0.40;;;12.80;99.90;;;;;;5073613;28;20479;-80
2021/05/18 15:01:30;;;;;;;1.27;1.17;;;12.30;99.90;;;;;;5073017;28;20882;-79
2021/05/18 15:03:56;;;;;;;0.50;0.40;;;12.30;99.90;;;;;;5071739;28;20946;-79
2021/05/18 15:06:22;;;;;;;0.50;0.40;;;12.30;99.90;;;;;;5072760;28;20945;-80
2021/05/18 15:08:48;;;;;;;0.50;0.40;;;12.70;99.90;;;;;;5073250;28;20971;-80
2021/05/18 15:11:15;;;;;;;0.50;0.40;;;13.30;99.90;;;;;;5073794;28;20513;-79
2021/05/18 15:13:41;;;;;;;0.50;0.40;;;13.90;99.90;;;;;;5073713;28;20465;-80
2021/05/18 15:16:08;;;;;;;0.50;0.40;;;14.40;99.90;;;;;;5072826;28;20444;-79
2021/05/18 15:18:35;;;;;;;0.50;0.40;;;15.10;99.90;;;;;;5073127;28;20495;-77
2021/05/18 15:21:01;;;;;;;0.50;0.40;;;15.50;99.90;;;;;;5073400;28;20452;-79
2021/05/18 15:23:28;;;;;;;0.50;0.40;;;15.90;99.90;;;;;;5065505;28;20477;-78
2021/05/18 15:25:56;;;;;;;0.50;0.30;;;16.10;99.90;;;;;;5072595;28;20532;-78
2021/05/18 15:28:22;;;;;;;0.50;0.40;;;16.30;99.90;;;;;;5074569;28;20440;-79
2021/05/18 15:30:49;;;;;;;0.50;0.40;;;16.20;99.90;;;;;;5072856;28;20949;-79
2021/05/18 15:33:16;;;;;;;0.50;0.30;;;16.30;99.90;;;;;;5071624;28;20463;-78
2021/05/18 15:35:42;;;;;;;0.50;0.40;;;16.30;99.90;;;;;;5072538;28;20455;-79
2021/05/18 15:38:08;;;;;;;0.50;0.40;;;16.10;99.90;;;;;;5072252;28;20523;-80
2021/05/18 15:40:35;;;;;;;0.50;0.40;;;16.10;99.90;;;;;;5072288;28;20440;-79
2021/05/18 15:43:01;;;;;;;0.50;0.40;;;16.00;99.90;;;;;;5072197;28;20466;-79
2021/05/18 15:45:27;;;;;;;0.50;0.40;;;15.90;99.90;;;;;;5072378;28;20441;-80
2021/05/18 15:47:54;;;;;;;0.50;0.37;;;15.50;99.90;;;;;;5072853;28;20441;-79
2021/05/18 15:50:21;;;;;;;0.50;0.40;;;15.30;99.90;;;;;;5073085;28;20459;-80
2021/05/18 15:52:47;;;;;;;0.50;0.40;;;15.00;99.90;;;;;;5069740;28;20467;-81
2021/05/18 15:55:14;;;;;;;0.50;0.30;;;14.80;99.90;;;;;;5064507;28;20445;-81
2021/05/18 15:57:40;;;;;;;0.50;0.40;;;14.40;99.90;;;;;;5072149;28;20436;-80
2021/05/18 16:00:08;;;;;;;0.50;0.40;;;14.20;99.90;;;;;;5072761;28;20444;-79
2021/05/18 16:02:34;;;;;;;0.50;0.40;;;14.10;99.90;;;;;;5072270;28;20474;-80
2021/05/18 16:05:00;;;;;;;0.50;0.40;;;14.10;99.90;;;;;;5071824;28;20482;-80
2021/05/18 16:07:28;;;;;;;0.50;0.37;;;14.10;99.90;;;;;;5072236;28;20464;-79
2021/05/18 16:09:55;;;;;;;0.50;0.40;;;14.20;99.90;;;;;;5072165;28;20515;-79
2021/05/18 16:12:21;;;;;;;0.50;0.40;;;14.30;99.90;;;;;;5072020;28;20539;-78
2021/05/18 16:14:48;;;;;;;0.50;0.40;;;14.40;99.90;;;;;;5070926;28;20440;-79
2021/05/18 16:17:20;;;;;;;0.50;0.40;;;14.60;99.90;;;;;;5072429;28;20432;-77
2021/05/18 16:19:46;;;;;;;0.50;0.30;;;14.60;99.90;;;;;;5057954;28;20472;-80
2021/05/18 16:22:12;;;;;;;0.50;0.40;;;14.80;99.90;;;;;;5056327;28;20471;-78
2021/05/18 16:24:39;;;;;;;0.50;0.40;;;14.90;99.90;;;;;;4353813;28;10000780;-79
2021/05/18 16:27:10;;;;;;;0.70;0.70;;;15.00;99.90;;;;;;5049355;28;20623;-78
2021/05/18 16:29:36;;;;;;;0.50;0.40;;;15.20;99.90;;;;;;5049410;28;20485;-75
2021/05/18 16:32:03;;;;;;;0.50;0.30;;;15.20;99.90;;;;;;5049009;28;20468;-79
2021/05/18 16:34:30;;;;;;;0.50;0.40;;;15.00;99.90;;;;;;5048685;28;20815;-75
2021/05/18 16:36:56;;;;;;;0.50;0.40;;;15.20;99.90;;;;;;5049009;28;20452;-78
2021/05/18 16:39:23;;;;;;;0.50;0.30;;;15.10;99.90;;;;;;5048492;28;20524;-81
2021/05/18 16:41:53;;;;;;;0.50;0.40;;;14.90;99.90;;;;;;5048858;28;20966;-78
2021/05/18 16:44:22;;;;;;;0.50;0.40;;;14.80;99.90;;;;;;5048740;28;20445;-79
2021/05/18 16:46:48;;;;;;;0.50;0.40;;;14.70;99.90;;;;;;5051408;28;20503;-79
2021/05/18 16:49:15;;;;;;;0.50;0.40;;;14.60;99.90;;;;;;5048538;28;21078;-79
2021/05/18 16:51:42;;;;;;;0.50;0.43;;;14.50;99.90;;;;;;5048006;28;20451;-77
2021/05/18 16:54:10;;;;;;;0.50;0.40;;;14.40;99.90;;;;;;5050744;28;20969;-78
2021/05/18 16:56:38;;;;;;;0.50;0.40;;;14.20;99.90;;;;;;5052351;28;20451;-77
2021/05/18 16:59:06;;;;;;;0.50;0.40;;;14.20;99.90;;;;;;5048760;28;20850;-78
2021/05/18 17:01:32;;;;;;;0.50;0.40;;;14.10;99.90;;;;;;5048588;28;20494;-78
2021/05/18 17:03:58;;;;;;;0.50;0.40;;;14.00;99.90;;;;;;5048483;28;20449;-78
2021/05/18 17:06:25;;;;;;;0.50;0.40;;;14.00;99.90;;;;;;5049161;28;20445;-76